createdAt,value
2018-08-23T00:04:51.843Z,94.70
2018-08-23T00:07:22.256Z,94.70
2018-08-23T00:09:53.171Z,94.80
2018-08-23T00:13:26.440Z,94.70
2018-08-23T00:15:56.883Z,95.00
2018-08-23T00:18:27.367Z,95.30
2018-08-23T00:23:27.495Z,96.00
2018-08-23T00:25:57.819Z,95.70
2018-08-23T00:28:28.216Z,96.10
2018-08-23T00:30:58.636Z,96.30
2018-08-23T00:33:29.051Z,96.40
2018-08-23T00:35:59.708Z,96.30
2018-08-23T00:38:30.127Z,96.00
2018-08-23T00:41:00.503Z,95.90
2018-08-23T00:46:04.749Z,95.70
2018-08-23T00:48:35.211Z,96.10
2018-08-23T00:51:06.811Z,96.20
2018-08-23T00:56:17.075Z,96.40
2018-08-23T00:58:51.711Z,96.30
2018-08-23T01:03:51.726Z,96.20
2018-08-23T01:06:24.723Z,96.20
2018-08-23T01:11:24.770Z,96.40
2018-08-23T01:13:55.171Z,96.30
2018-08-23T01:16:25.634Z,96.50
2018-08-23T01:19:00.682Z,96.50
2018-08-23T01:21:33.380Z,96.60
2018-08-23T01:24:03.911Z,96.50
2018-08-23T01:26:35.373Z,96.50
2018-08-23T01:29:15.072Z,96.40
2018-08-23T01:31:45.283Z,96.40
2018-08-23T01:34:15.760Z,96.50
2018-08-23T01:36:46.267Z,96.90
2018-08-23T01:39:16.639Z,97.00
2018-08-23T01:41:47.429Z,97.20
2018-08-23T01:44:17.937Z,97.20
2018-08-23T01:46:48.376Z,97.40
2018-08-23T01:49:19.215Z,97.80
2018-08-23T01:51:49.517Z,97.90
2018-08-23T01:54:20.015Z,97.90
2018-08-23T01:56:50.602Z,98.00
2018-08-23T01:59:21.099Z,98.30
2018-08-23T02:01:51.422Z,98.80
2018-08-23T02:04:21.899Z,98.80
2018-08-23T02:06:52.431Z,99.10
2018-08-23T02:09:22.879Z,99.30
2018-08-23T02:11:53.360Z,99.30
2018-08-23T02:14:24.383Z,99.60
2018-08-23T02:16:54.827Z,99.60
2018-08-23T02:19:25.407Z,99.80
2018-08-23T02:21:55.799Z,99.90
2018-08-23T02:24:30.391Z,99.90
2018-08-23T02:27:00.709Z,99.90
2018-08-23T02:29:41.487Z,99.90
2018-08-23T02:32:11.775Z,99.90
2018-08-23T02:37:15.051Z,99.90
2018-08-23T02:39:46.279Z,99.90
2018-08-23T02:42:18.669Z,99.90
2018-08-23T02:44:49.167Z,99.90
2018-08-23T02:47:19.512Z,99.70
2018-08-23T02:49:50.120Z,99.40
2018-08-23T02:52:20.695Z,99.30
2018-08-23T02:54:51.120Z,99.10
2018-08-23T02:57:21.605Z,98.90
2018-08-23T02:59:51.973Z,98.80
2018-08-23T03:02:22.537Z,98.60
2018-08-23T03:04:53.058Z,98.50
2018-08-23T03:12:23.592Z,98.70
2018-08-23T03:14:54.201Z,98.60
2018-08-23T03:17:28.537Z,98.60
2018-08-23T03:20:03.785Z,98.80
2018-08-23T03:22:34.909Z,98.80
2018-08-23T03:25:06.867Z,98.50
2018-08-23T03:27:37.389Z,98.60
2018-08-23T03:30:09.280Z,98.60
2018-08-23T03:32:39.607Z,98.70
2018-08-23T03:35:10.468Z,98.60
2018-08-23T03:37:40.946Z,98.70
2018-08-23T03:40:12.753Z,98.80
2018-08-23T03:47:55.220Z,99.20
2018-08-23T03:50:25.488Z,99.40
2018-08-23T03:52:56.049Z,99.50
2018-08-23T03:58:03.485Z,99.50
2018-08-23T04:00:38.911Z,99.40
2018-08-23T04:03:19.898Z,99.20
2018-08-23T04:05:50.305Z,99.20
2018-08-23T04:08:20.830Z,99.10
2018-08-23T04:10:51.201Z,99.10
2018-08-23T04:13:21.681Z,98.90
2018-08-23T04:18:21.821Z,99.10
2018-08-23T04:20:55.323Z,98.90
2018-08-23T04:23:25.777Z,98.90
2018-08-23T04:25:56.189Z,98.70
2018-08-23T04:28:26.672Z,98.70
2018-08-23T04:33:26.780Z,98.60
2018-08-23T04:35:57.285Z,98.60
2018-08-23T04:38:27.656Z,98.50
2018-08-23T04:41:00.491Z,98.40
2018-08-23T04:43:30.900Z,98.30
2018-08-23T04:46:03.982Z,98.10
2018-08-23T04:51:03.964Z,97.80
2018-08-23T04:53:34.432Z,97.50
2018-08-23T04:56:04.745Z,97.30
2018-08-23T04:58:35.214Z,97.00
2018-08-23T05:01:05.745Z,96.60
2018-08-23T05:03:36.170Z,96.40
2018-08-23T05:06:06.573Z,96.10
2018-08-23T05:08:37.019Z,96.40
2018-08-23T05:11:07.509Z,96.50
2018-08-23T05:13:38.052Z,96.40
2018-08-23T05:18:38.321Z,95.70
2018-08-23T05:21:08.817Z,95.50
2018-08-23T05:26:15.425Z,95.70
2018-08-23T05:29:01.181Z,96.50
2018-08-23T05:31:32.813Z,97.00
2018-08-23T05:34:05.601Z,97.30
2018-08-23T05:36:36.096Z,97.10
2018-08-23T05:39:09.403Z,96.90
2018-08-23T05:41:39.833Z,97.00
2018-08-23T05:44:19.040Z,96.70
2018-08-23T05:46:53.047Z,97.00
2018-08-23T05:49:23.709Z,96.60
2018-08-23T05:51:57.560Z,96.50
2018-08-23T05:56:57.777Z,96.70
2018-08-23T05:59:28.381Z,97.20
2018-08-23T06:01:58.897Z,96.80
2018-08-23T06:04:48.046Z,96.80
2018-08-23T06:07:18.389Z,96.50
2018-08-23T06:09:48.772Z,96.30
2018-08-23T06:14:49.000Z,95.50
2018-08-23T06:19:49.076Z,96.20
2018-08-23T06:22:19.432Z,96.00
2018-08-23T06:24:49.964Z,96.20
2018-08-23T06:27:20.505Z,95.70
2018-08-23T06:29:51.084Z,95.00
2018-08-23T06:32:21.463Z,95.50
2018-08-23T06:34:52.804Z,95.30
2018-08-23T06:37:23.592Z,94.90
2018-08-23T06:39:54.343Z,95.40
2018-08-23T06:42:39.395Z,94.70
2018-08-23T06:45:09.893Z,94.10
2018-08-23T06:47:44.352Z,94.20
2018-08-23T06:50:14.716Z,93.60
2018-08-23T06:52:50.126Z,93.20
2018-08-23T06:55:25.493Z,93.70
2018-08-23T06:58:00.125Z,94.00
2018-08-23T07:00:30.627Z,94.30
2018-08-23T07:03:01.241Z,93.80
2018-08-23T07:05:31.635Z,94.10
2018-08-23T07:08:02.141Z,92.50
2018-08-23T07:10:32.688Z,92.10
2018-08-23T07:15:32.729Z,92.70
2018-08-23T07:20:33.294Z,93.00
2018-08-23T07:23:04.017Z,92.20
2018-08-23T07:25:38.658Z,90.90
2018-08-23T07:28:09.264Z,90.70
2018-08-23T07:30:39.684Z,92.00
2018-08-23T07:35:40.055Z,90.00
2018-08-23T07:38:10.437Z,90.40
2018-08-23T07:40:41.112Z,90.80
2018-08-23T07:43:11.524Z,89.70
2018-08-23T07:45:42.008Z,90.00
2018-08-23T07:48:12.453Z,87.40
2018-08-23T07:50:43.227Z,86.50
2018-08-23T07:53:13.661Z,86.40
2018-08-23T07:55:44.182Z,86.10
2018-08-23T07:58:14.864Z,85.20
2018-08-23T08:00:45.340Z,85.70
2018-08-23T08:03:16.156Z,82.50
2018-08-23T08:08:16.772Z,82.10
2018-08-23T08:10:47.324Z,83.20
2018-08-23T08:15:47.481Z,84.70
2018-08-23T08:18:24.169Z,81.20
2018-08-23T08:21:04.698Z,79.40
2018-08-23T08:26:05.488Z,77.50
2018-08-23T08:28:36.185Z,79.00
2018-08-23T08:36:07.776Z,77.30
2018-08-23T08:38:38.232Z,73.90
2018-08-23T08:41:08.626Z,75.80
2018-08-23T08:46:08.862Z,72.30
2018-08-23T08:51:21.917Z,71.40
2018-08-23T08:53:53.233Z,72.80
2018-08-23T08:56:27.309Z,71.40
2018-08-23T08:58:57.741Z,72.30
2018-08-23T09:01:28.344Z,70.30
2018-08-23T09:03:58.944Z,68.00
2018-08-23T09:09:14.060Z,71.40
2018-08-23T09:11:44.591Z,72.60
2018-08-23T09:14:14.936Z,65.30
2018-08-23T09:16:45.803Z,65.10
2018-08-23T09:19:16.357Z,65.30
2018-08-23T09:21:52.439Z,65.80
2018-08-23T09:24:28.860Z,62.60
2018-08-23T09:26:59.409Z,65.00
2018-08-23T09:32:27.427Z,60.50
2018-08-23T09:35:00.068Z,58.70
2018-08-23T09:37:35.247Z,64.00
2018-08-23T09:40:06.093Z,59.60
2018-08-23T09:42:37.302Z,60.80
2018-08-23T09:45:17.170Z,64.50
2018-08-23T09:47:47.595Z,58.60
2018-08-23T09:50:18.028Z,54.60
2018-08-23T09:52:49.730Z,52.70
2018-08-23T09:55:21.321Z,53.10
2018-08-23T09:57:51.761Z,55.20
2018-08-23T10:00:30.172Z,55.50
2018-08-23T10:03:05.803Z,53.80
2018-08-23T10:05:47.720Z,52.30
2018-08-23T10:08:23.511Z,50.10
2018-08-23T10:10:58.776Z,56.60
2018-08-23T10:13:34.322Z,52.00
2018-08-23T10:16:09.636Z,52.60
2018-08-23T10:18:45.120Z,53.60
2018-08-23T10:21:16.752Z,50.50
2018-08-23T10:23:47.354Z,53.70
2018-08-23T10:26:30.106Z,50.00
2018-08-23T10:29:00.944Z,53.70
2018-08-23T10:36:35.224Z,51.40
2018-08-23T10:39:07.867Z,52.70
2018-08-23T10:49:52.937Z,48.80
2018-08-23T10:52:23.324Z,49.20
2018-08-23T10:57:23.359Z,47.10
2018-08-23T10:59:53.672Z,47.30
2018-08-23T11:04:53.744Z,50.80
2018-08-23T11:07:28.267Z,49.00
2018-08-23T11:10:03.712Z,49.40
2018-08-23T11:12:39.299Z,43.00
2018-08-23T11:15:15.007Z,50.00
2018-08-23T11:17:50.457Z,46.70
2018-08-23T11:20:25.908Z,43.70
2018-08-23T11:22:56.363Z,45.10
2018-08-23T11:25:27.239Z,44.00
2018-08-23T11:27:57.836Z,44.50
2018-08-23T11:30:28.319Z,44.50
2018-08-23T11:32:58.808Z,43.60
2018-08-23T11:35:29.273Z,46.00
2018-08-23T11:37:59.652Z,43.60
2018-08-23T11:40:30.013Z,43.20
2018-08-23T11:43:00.824Z,42.40
2018-08-23T11:48:00.965Z,45.40
2018-08-23T11:53:01.202Z,42.60
2018-08-23T11:55:32.070Z,45.90
2018-08-23T11:58:02.712Z,41.80
2018-08-23T12:00:33.188Z,45.10
2018-08-23T12:03:03.724Z,39.00
2018-08-23T12:10:33.392Z,42.40
2018-08-23T12:13:03.739Z,39.70
2018-08-23T12:15:34.407Z,39.60
2018-08-23T12:18:05.056Z,41.40
2018-08-23T12:23:05.421Z,38.50
2018-08-23T12:25:35.827Z,39.50
2018-08-23T12:28:11.340Z,37.80
2018-08-23T12:30:42.676Z,40.30
2018-08-23T12:33:13.040Z,36.40
2018-08-23T12:38:20.809Z,36.80
2018-08-23T12:40:56.674Z,37.20
2018-08-23T12:43:32.296Z,37.00
2018-08-23T12:46:04.013Z,37.30
2018-08-23T12:53:35.718Z,36.80
2018-08-23T12:56:06.369Z,36.60
2018-08-23T12:58:38.028Z,36.20
2018-08-23T13:01:12.899Z,36.10
2018-08-23T13:03:44.326Z,35.30
2018-08-23T13:06:15.194Z,37.20
2018-08-23T13:08:45.782Z,34.20
2018-08-23T13:11:16.131Z,36.10
2018-08-23T13:13:46.659Z,32.70
2018-08-23T13:16:17.079Z,33.60
2018-08-23T13:18:47.516Z,30.50
2018-08-23T13:21:17.995Z,31.20
2018-08-23T13:23:48.243Z,30.70
2018-08-23T13:26:18.852Z,32.40
2018-08-23T13:28:49.449Z,31.60
2018-08-23T13:33:49.663Z,34.30
2018-08-23T13:36:20.249Z,36.70
2018-08-23T13:38:50.781Z,37.50
2018-08-23T13:41:21.433Z,38.10
2018-08-23T13:43:51.763Z,38.80
2018-08-23T13:46:22.512Z,38.70
2018-08-23T13:48:52.998Z,39.50
2018-08-23T13:51:23.517Z,34.90
2018-08-23T13:53:53.802Z,36.40
2018-08-23T13:58:55.613Z,35.80
2018-08-23T14:01:29.703Z,32.10
2018-08-23T14:06:29.721Z,31.90
2018-08-23T14:09:00.152Z,32.10
2018-08-23T14:11:30.488Z,31.90
2018-08-23T14:14:01.056Z,33.10
2018-08-23T14:16:31.419Z,36.20
2018-08-23T14:19:01.844Z,33.40
2018-08-23T14:21:32.323Z,36.20
2018-08-23T14:24:02.900Z,33.60
2018-08-23T14:26:33.694Z,34.50
2018-08-23T14:29:04.092Z,35.50
2018-08-23T14:34:04.099Z,34.60
2018-08-23T14:36:34.581Z,32.10
2018-08-23T14:39:07.107Z,30.90
2018-08-23T14:41:37.952Z,31.60
2018-08-23T14:44:08.625Z,31.70
2018-08-23T14:46:44.079Z,31.80
2018-08-23T14:49:45.112Z,33.70
2018-08-23T14:52:15.503Z,33.60
2018-08-23T14:57:20.564Z,36.60
2018-08-23T15:04:50.403Z,42.40
2018-08-23T15:09:50.508Z,40.00
2018-08-23T15:12:20.990Z,38.90
2018-08-23T15:14:51.394Z,38.90
2018-08-23T15:17:21.812Z,40.00
2018-08-23T15:24:51.764Z,39.80
2018-08-23T15:27:22.157Z,38.40
2018-08-23T15:29:52.496Z,36.50
2018-08-23T15:32:22.920Z,36.10
2018-08-23T15:34:53.311Z,36.00
2018-08-23T15:37:23.891Z,38.80
2018-08-23T15:42:24.227Z,39.80
2018-08-23T15:44:54.565Z,40.10
2018-08-23T15:47:25.271Z,41.60
2018-08-23T15:49:55.708Z,42.00
2018-08-23T15:54:56.005Z,38.90
2018-08-23T15:57:26.480Z,37.10
2018-08-23T15:59:56.993Z,38.30
2018-08-23T16:02:27.548Z,41.00
2018-08-23T16:07:27.773Z,37.20
2018-08-23T16:12:27.916Z,35.90
2018-08-23T16:14:58.741Z,35.80
2018-08-23T16:20:09.080Z,35.20
2018-08-23T16:22:39.612Z,36.20
2018-08-23T16:25:10.368Z,35.30
2018-08-23T16:27:40.868Z,36.50
2018-08-23T16:30:11.277Z,36.30
2018-08-23T16:32:41.959Z,37.60
2018-08-23T16:35:12.505Z,39.50
2018-08-23T16:40:16.772Z,41.60
2018-08-23T16:42:47.216Z,42.20
2018-08-23T16:45:17.616Z,42.40
2018-08-23T16:47:48.045Z,42.70
2018-08-23T16:50:18.561Z,43.80
2018-08-23T16:52:49.053Z,43.70
2018-08-23T16:55:19.944Z,44.60
2018-08-23T16:58:43.290Z,45.40
2018-08-23T17:01:13.660Z,46.20
2018-08-23T17:03:47.348Z,47.50
2018-08-23T17:06:17.818Z,47.30
2018-08-23T17:08:48.423Z,47.40
2018-08-23T17:11:18.925Z,47.80
2018-08-23T17:13:49.351Z,47.90
2018-08-23T17:16:24.796Z,48.10
2018-08-23T17:18:55.396Z,48.80
2018-08-23T17:23:55.536Z,49.90
2018-08-23T17:26:25.862Z,50.50
2018-08-23T17:28:56.689Z,50.10
2018-08-23T17:33:56.828Z,50.30
2018-08-23T17:41:26.692Z,51.30
2018-08-23T17:43:57.101Z,51.30
2018-08-23T17:48:57.236Z,52.70
2018-08-23T17:53:57.484Z,54.20
2018-08-23T17:56:27.933Z,55.70
2018-08-23T17:58:59.485Z,54.40
2018-08-23T18:01:29.737Z,55.30
2018-08-23T18:04:00.360Z,54.70
2018-08-23T18:06:30.741Z,55.20
2018-08-23T18:09:01.505Z,55.20
2018-08-23T18:11:32.079Z,55.80
2018-08-23T18:14:02.701Z,55.70
2018-08-23T18:16:38.047Z,55.60
2018-08-23T18:19:08.532Z,55.80
2018-08-23T18:21:39.808Z,55.60
2018-08-23T18:24:10.232Z,55.50
2018-08-23T18:26:40.660Z,56.00
2018-08-23T18:29:11.141Z,55.90
2018-08-23T18:31:41.589Z,55.90
2018-08-23T18:34:12.149Z,56.20
2018-08-23T18:36:43.662Z,56.50
2018-08-23T18:39:14.297Z,56.70
2018-08-23T18:41:45.004Z,56.40
2018-08-23T18:44:15.707Z,57.00
2018-08-23T18:46:46.169Z,56.90
2018-08-23T18:49:16.616Z,57.00
2018-08-23T18:51:47.196Z,56.90
2018-08-23T18:54:19.024Z,56.70
2018-08-23T18:56:49.510Z,55.90
2018-08-23T18:59:20.069Z,56.00
2018-08-23T19:01:50.640Z,56.10
2018-08-23T19:04:21.192Z,56.20
2018-08-23T19:09:21.625Z,58.00
2018-08-23T19:14:21.801Z,59.10
2018-08-23T19:16:57.176Z,60.20
2018-08-23T19:19:27.835Z,61.20
2018-08-23T19:21:58.273Z,62.40
2018-08-23T19:29:28.152Z,65.00
2018-08-23T19:31:58.720Z,65.40
2018-08-23T19:34:29.211Z,65.50
2018-08-23T19:36:59.719Z,66.00
2018-08-23T19:39:30.676Z,66.40
2018-08-23T19:42:01.272Z,67.20
2018-08-23T19:47:06.424Z,67.40
2018-08-23T19:52:12.225Z,71.80
2018-08-23T19:54:42.924Z,71.50
2018-08-23T19:57:13.471Z,70.60
2018-08-23T19:59:44.053Z,70.80
2018-08-23T20:02:14.604Z,71.20
2018-08-23T20:07:15.564Z,71.10
2018-08-23T20:12:16.297Z,72.70
2018-08-23T20:14:46.748Z,74.60
2018-08-23T20:19:46.929Z,75.40
2018-08-23T20:22:17.392Z,76.10
2018-08-23T20:24:48.369Z,75.80
2018-08-23T20:27:18.835Z,76.20
2018-08-23T20:29:49.580Z,76.30
2018-08-23T20:32:20.557Z,77.10
2018-08-23T20:34:50.976Z,77.70
2018-08-23T20:39:51.041Z,79.30
2018-08-23T20:42:21.337Z,79.30
2018-08-23T20:47:21.456Z,81.30
2018-08-23T20:52:21.492Z,82.60
2018-08-23T20:54:51.954Z,83.20
2018-08-23T20:57:22.367Z,83.00
2018-08-23T20:59:52.664Z,82.90
2018-08-23T21:02:23.103Z,82.50
2018-08-23T21:07:23.172Z,83.20
2018-08-23T21:09:53.854Z,85.10
2018-08-23T21:12:25.251Z,83.20
2018-08-23T21:14:55.797Z,83.60
2018-08-23T21:17:26.217Z,84.20
2018-08-23T21:19:56.641Z,84.10
2018-08-23T21:22:27.003Z,83.40
2018-08-23T21:24:57.493Z,79.70
2018-08-23T21:27:27.832Z,80.20
2018-08-23T21:29:58.408Z,80.50
2018-08-23T21:34:58.690Z,83.30
2018-08-23T21:37:29.117Z,83.80
2018-08-23T21:39:59.661Z,84.40
2018-08-23T21:42:30.647Z,84.70
2018-08-23T21:47:30.812Z,86.40
2018-08-23T21:50:01.304Z,87.40
2018-08-23T21:52:31.608Z,90.10
2018-08-23T21:55:02.057Z,90.90
2018-08-23T21:57:32.995Z,91.10
2018-08-23T22:02:33.029Z,91.10
2018-08-23T22:07:33.372Z,91.30
2018-08-23T22:12:33.560Z,90.50
2018-08-23T22:15:04.135Z,90.50
2018-08-23T22:17:34.668Z,91.40
2018-08-23T22:22:35.084Z,91.50
2018-08-23T22:25:05.692Z,91.90
2018-08-23T22:27:36.068Z,92.30
2018-08-23T22:32:36.920Z,92.10
2018-08-23T22:37:37.078Z,92.80
2018-08-23T22:40:08.001Z,93.30
2018-08-23T22:42:38.368Z,93.60
2018-08-23T22:45:08.976Z,93.60
2018-08-23T22:47:39.609Z,94.00
2018-08-23T22:50:10.238Z,94.20
2018-08-23T22:52:40.773Z,94.00
2018-08-23T22:55:11.155Z,94.10
2018-08-23T22:57:41.572Z,94.10
2018-08-23T23:00:12.149Z,94.20
2018-08-23T23:02:42.647Z,94.40
2018-08-23T23:05:13.034Z,93.90
2018-08-23T23:07:43.593Z,96.10
2018-08-23T23:10:14.044Z,95.50
2018-08-23T23:12:44.565Z,95.90
2018-08-23T23:15:20.341Z,95.90
2018-08-23T23:17:50.943Z,96.50
2018-08-23T23:22:51.184Z,96.00
2018-08-23T23:27:51.416Z,95.50
2018-08-23T23:32:52.378Z,96.00
2018-08-23T23:37:52.589Z,96.40
2018-08-23T23:40:23.061Z,96.10
2018-08-23T23:42:53.568Z,95.90
2018-08-23T23:47:53.569Z,96.30
2018-08-23T23:50:24.127Z,96.90
2018-08-23T23:55:24.121Z,97.20
2018-08-23T23:57:54.592Z,97.00
